Time;durP1;ratioP1;P1;durP2;ratioP2;P2;SDS_P1;SDS_P2;PMS_P1;PMS_P2;Temp;Humidity;BMP_temperature;BMP_pressure;BME280_temperature;BME280_humidity;BME280_pressure;Samples;Min_cycle;Max_cycle;Signal;HPM_P1;HPM_P2
2022/05/31 00:03:21;;;;;;;5.45;2.55;;;;;;;;;;6346862;22;20018;-82
2022/05/31 00:05:53;;;;;;;3.58;1.80;;;;;;;;;;6339916;22;20518;-83
2022/05/31 00:08:45;;;;;;;3.90;2.00;;;;;;;;;;6342052;22;20045;-82
2022/05/31 00:11:13;;;;;;;3.92;1.55;;;;;;;;;;6337503;22;20438;-82
2022/05/31 00:13:41;;;;;;;4.70;1.98;;;;;;;;;;6344286;22;20057;-83
2022/05/31 00:16:10;;;;;;;3.95;2.08;;;;;;;;;;6345133;22;20018;-83
2022/05/31 00:19:01;;;;;;;4.07;1.90;;;;;;;;;;6348869;22;20116;-83
2022/05/31 00:21:40;;;;;;;3.35;1.80;;;;;;;;;;6349987;22;20018;-82
2022/05/31 00:24:14;;;;;;;5.65;2.08;;;;;;;;;;6341898;22;20332;-82
2022/05/31 00:26:48;;;;;;;4.13;1.92;;;;;;;;;;6365772;22;20045;-88
2022/05/31 00:29:21;;;;;;;3.58;1.90;;;;;;;;;;6326060;22;20010;-88
2022/05/31 00:31:50;;;;;;;3.13;1.80;;;;;;;;;;6394854;22;19999;-88
2022/05/31 00:34:23;;;;;;;5.55;1.90;;;;;;;;;;6356015;22;20045;-91
2022/05/31 00:36:54;;;;;;;4.22;2.08;;;;;;;;;;6295720;22;20110;-90
2022/05/31 00:39:23;;;;;;;3.00;1.65;;;;;;;;;;6321400;22;20080;-91
2022/05/31 00:42:04;;;;;;;4.88;2.00;;;;;;;;;;6353503;22;20096;-90
2022/05/31 00:44:37;;;;;;;3.97;1.77;;;;;;;;;;6353389;22;20014;-90
2022/05/31 00:47:33;;;;;;;4.18;1.77;;;;;;;;;;6352848;22;20023;-90
2022/05/31 00:50:34;;;;;;;3.92;1.80;;;;;;;;;;6353722;22;20021;-90
2022/05/31 00:53:11;;;;;;;3.92;1.77;;;;;;;;;;6354238;22;20014;-91
2022/05/31 00:55:45;;;;;;;3.83;1.88;;;;;;;;;;6352086;22;20117;-90
2022/05/31 00:58:31;;;;;;;2.70;1.40;;;;;;;;;;6352975;22;20018;-90
2022/05/31 01:01:03;;;;;;;3.95;2.03;;;;;;;;;;6352998;22;20014;-90
2022/05/31 01:03:39;;;;;;;5.85;2.00;;;;;;;;;;6353915;22;20015;-91
2022/05/31 01:06:13;;;;;;;3.95;1.70;;;;;;;;;;6354426;22;20048;-90
2022/05/31 01:08:45;;;;;;;3.63;1.98;;;;;;;;;;6351603;22;20014;-91
2022/05/31 01:11:35;;;;;;;3.45;1.75;;;;;;;;;;6353567;22;20019;-82
2022/05/31 01:14:13;;;;;;;4.45;2.00;;;;;;;;;;6342524;22;20566;-82
2022/05/31 01:17:06;;;;;;;2.85;1.52;;;;;;;;;;6352714;22;20053;-88
2022/05/31 01:20:07;;;;;;;6.40;1.83;;;;;;;;;;6351109;22;20097;-87
2022/05/31 01:22:44;;;;;;;2.85;1.55;;;;;;;;;;6350957;22;20106;-90
2022/05/31 01:25:23;;;;;;;2.55;1.52;;;;;;;;;;6352662;22;20068;-91
2022/05/31 01:28:46;;;;;;;3.50;1.92;;;;;;;;;;6315969;22;20014;-90
2022/05/31 01:31:21;;;;;;;3.22;1.63;;;;;;;;;;6316813;22;20026;-91
2022/05/31 01:34:18;;;;;;;3.17;1.65;;;;;;;;;;6353153;22;20045;-90
2022/05/31 01:36:51;;;;;;;3.53;1.90;;;;;;;;;;6223108;23;20028;-90
2022/05/31 01:39:48;;;;;;;3.78;1.80;;;;;;;;;;6247575;23;20021;-82
2022/05/31 01:42:33;;;;;;;3.70;1.80;;;;;;;;;;6246839;23;20027;-82
2022/05/31 01:45:08;;;;;;;4.50;1.60;;;;;;;;;;6208478;23;20096;-82
2022/05/31 01:47:36;;;;;;;3.83;1.75;;;;;;;;;;6248079;23;20028;-82
2022/05/31 01:50:09;;;;;;;3.80;1.95;;;;;;;;;;6233477;23;20079;-82
2022/05/31 01:52:44;;;;;;;4.32;1.90;;;;;;;;;;6248188;23;20114;-82
2022/05/31 01:55:14;;;;;;;3.33;1.58;;;;;;;;;;6256979;23;20139;-88
2022/05/31 01:57:48;;;;;;;4.13;1.95;;;;;;;;;;6229416;23;20457;-88
2022/05/31 02:00:41;;;;;;;3.35;1.60;;;;;;;;;;6242588;23;20127;-88
2022/05/31 02:03:10;;;;;;;4.32;1.85;;;;;;;;;;6253493;23;20115;-87
2022/05/31 02:05:44;;;;;;;3.80;1.90;;;;;;;;;;6253199;23;20194;-90
2022/05/31 02:08:14;;;;;;;5.88;2.42;;;;;;;;;;6221913;23;20114;-90
2022/05/31 02:10:46;;;;;;;3.97;2.20;;;;;;;;;;6221105;23;20148;-91
2022/05/31 02:13:19;;;;;;;3.45;1.80;;;;;;;;;;6289196;22;20018;-90
2022/05/31 02:16:05;;;;;;;4.28;1.98;;;;;;;;;;6315343;22;20097;-90
2022/05/31 02:22:01;;;;;;;4.57;1.80;;;;;;;;;;6352537;22;20405;-91
2022/05/31 02:24:29;;;;;;;3.58;1.90;;;;;;;;;;6351046;22;20011;-90
2022/05/31 02:27:03;;;;;;;4.57;2.05;;;;;;;;;;6352282;22;20084;-90
2022/05/31 02:29:35;;;;;;;4.88;1.75;;;;;;;;;;6314501;22;20026;-90
2022/05/31 02:32:06;;;;;;;3.70;1.65;;;;;;;;;;6350790;22;20022;-90
2022/05/31 02:34:45;;;;;;;4.68;1.92;;;;;;;;;;6313898;22;20081;-87
2022/05/31 02:37:16;;;;;;;4.10;1.98;;;;;;;;;;6337084;22;20022;-87
2022/05/31 02:40:10;;;;;;;6.03;1.92;;;;;;;;;;6348204;22;20018;-87
2022/05/31 02:42:37;;;;;;;3.90;2.17;;;;;;;;;;6310856;22;20034;-88
2022/05/31 02:45:10;;;;;;;3.10;1.75;;;;;;;;;;6348012;22;20139;-84
2022/05/31 02:47:39;;;;;;;3.78;1.77;;;;;;;;;;6349767;22;20022;-84
2022/05/31 02:50:13;;;;;;;4.68;2.30;;;;;;;;;;6349989;22;20344;-84
2022/05/31 02:52:41;;;;;;;3.40;2.17;;;;;;;;;;6351422;22;20018;-85
2022/05/31 02:55:09;;;;;;;4.80;2.20;;;;;;;;;;6348807;22;20014;-81
2022/05/31 02:58:01;;;;;;;3.20;1.90;;;;;;;;;;6354977;22;20019;-81
2022/05/31 03:00:55;;;;;;;4.90;2.17;;;;;;;;;;6353027;22;20033;-82
2022/05/31 03:04:12;;;;;;;3.50;1.83;;;;;;;;;;6352156;22;20002;-82
2022/05/31 03:07:09;;;;;;;6.22;2.13;;;;;;;;;;6341248;22;20029;-83
2022/05/31 03:09:51;;;;;;;4.05;2.10;;;;;;;;;;6352638;22;20022;-83
2022/05/31 03:12:20;;;;;;;4.13;2.13;;;;;;;;;;6352665;22;20015;-83
2022/05/31 03:15:00;;;;;;;3.75;2.10;;;;;;;;;;6353297;22;20019;-82
2022/05/31 03:20:34;;;;;;;4.50;2.15;;;;;;;;;;6352525;22;20417;-82
2022/05/31 03:23:16;;;;;;;4.20;2.03;;;;;;;;;;6351789;22;20399;-82
2022/05/31 03:26:13;;;;;;;4.55;2.05;;;;;;;;;;6340819;22;20100;-83
2022/05/31 03:28:47;;;;;;;5.38;2.33;;;;;;;;;;6354250;22;20030;-82
2022/05/31 03:31:15;;;;;;;3.88;2.17;;;;;;;;;;6353393;22;20038;-82
2022/05/31 03:33:43;;;;;;;3.45;1.85;;;;;;;;;;6352573;22;20010;-82
2022/05/31 03:36:12;;;;;;;3.67;1.80;;;;;;;;;;6339018;22;20042;-82
2022/05/31 03:38:45;;;;;;;4.25;2.03;;;;;;;;;;6351237;22;20439;-81
2022/05/31 03:41:13;;;;;;;4.07;1.88;;;;;;;;;;6350219;22;20042;-81
2022/05/31 03:43:45;;;;;;;4.82;2.30;;;;;;;;;;6350729;22;20072;-82
2022/05/31 03:46:24;;;;;;;4.07;2.08;;;;;;;;;;6351040;22;20034;-82
2022/05/31 03:49:38;;;;;;;5.53;2.13;;;;;;;;;;6256120;23;20028;-82
2022/05/31 03:52:07;;;;;;;5.82;2.55;;;;;;;;;;6256117;23;20051;-83
2022/05/31 03:54:43;;;;;;;7.47;2.53;;;;;;;;;;6256755;23;20024;-82
2022/05/31 03:57:17;;;;;;;4.50;2.30;;;;;;;;;;6220252;23;20136;-82
2022/05/31 04:00:23;;;;;;;5.75;2.25;;;;;;;;;;6222134;23;20138;-82
2022/05/31 04:03:14;;;;;;;6.00;2.45;;;;;;;;;;6247334;22;20059;-82
2022/05/31 04:05:42;;;;;;;4.78;2.50;;;;;;;;;;6255138;23;20028;-83
2022/05/31 04:08:15;;;;;;;4.03;2.47;;;;;;;;;;6254368;23;20063;-82
2022/05/31 04:11:09;;;;;;;5.97;2.40;;;;;;;;;;6254348;23;20460;-82
2022/05/31 04:13:41;;;;;;;4.45;2.30;;;;;;;;;;6220283;23;20027;-82
2022/05/31 04:16:27;;;;;;;4.38;1.95;;;;;;;;;;6219614;23;20039;-82
2022/05/31 04:18:57;;;;;;;5.55;2.00;;;;;;;;;;6255457;23;20048;-82
2022/05/31 04:21:29;;;;;;;6.38;3.25;;;;;;;;;;6255590;23;20091;-81
2022/05/31 04:24:02;;;;;;;10.00;4.70;;;;;;;;;;6256751;23;20108;-82
2022/05/31 04:26:47;;;;;;;6.10;3.25;;;;;;;;;;6319180;22;20023;-81
2022/05/31 04:29:34;;;;;;;5.53;3.00;;;;;;;;;;6354381;22;20070;-82
2022/05/31 04:32:17;;;;;;;5.70;3.08;;;;;;;;;;6353775;22;20272;-82
2022/05/31 04:34:53;;;;;;;4.43;2.40;;;;;;;;;;6342529;22;20292;-82
2022/05/31 04:37:27;;;;;;;4.50;2.35;;;;;;;;;;6354193;22;20019;-82
2022/05/31 04:40:01;;;;;;;4.00;2.47;;;;;;;;;;6325629;22;20027;-76
2022/05/31 04:42:43;;;;;;;8.00;2.47;;;;;;;;;;6324442;22;20034;-77
2022/05/31 04:45:41;;;;;;;4.28;2.22;;;;;;;;;;6338524;22;20579;-83
2022/05/31 04:48:35;;;;;;;6.25;2.42;;;;;;;;;;6324225;22;20122;-83
2022/05/31 04:51:32;;;;;;;6.72;2.90;;;;;;;;;;6337479;22;20014;-83
2022/05/31 04:54:03;;;;;;;5.53;2.85;;;;;;;;;;6335315;22;20018;-83
2022/05/31 04:57:04;;;;;;;7.50;3.20;;;;;;;;;;6269769;22;20486;-84
2022/05/31 04:59:33;;;;;;;5.80;3.08;;;;;;;;;;6336860;22;20022;-86
2022/05/31 05:02:01;;;;;;;6.70;3.17;;;;;;;;;;6337341;22;20498;-86
2022/05/31 05:04:55;;;;;;;5.18;3.10;;;;;;;;;;6323254;22;20029;-85
2022/05/31 05:07:37;;;;;;;5.90;3.20;;;;;;;;;;6338171;22;20032;-77
2022/05/31 05:10:33;;;;;;;6.10;3.50;;;;;;;;;;6317493;22;20442;-77
2022/05/31 05:13:17;;;;;;;6.70;3.67;;;;;;;;;;6327455;22;20241;-77
2022/05/31 05:16:12;;;;;;;6.35;3.40;;;;;;;;;;6339878;22;20015;-76
2022/05/31 05:18:51;;;;;;;7.97;3.92;;;;;;;;;;6339148;22;20023;-76
2022/05/31 05:21:47;;;;;;;8.75;3.53;;;;;;;;;;6339093;22;20013;-76
2022/05/31 05:24:15;;;;;;;11.85;4.10;;;;;;;;;;6336453;22;20405;-78
2022/05/31 05:26:59;;;;;;;7.40;3.80;;;;;;;;;;6337680;22;20014;-80
2022/05/31 05:32:39;;;;;;;8.13;3.70;;;;;;;;;;6339386;22;20015;-79
2022/05/31 05:35:37;;;;;;;10.00;4.30;;;;;;;;;;6170760;23;20032;-76
2022/05/31 05:38:29;;;;;;;6.80;3.30;;;;;;;;;;6183064;23;20140;-76
2022/05/31 05:41:19;;;;;;;7.40;2.88;;;;;;;;;;6181384;23;20048;-76
2022/05/31 05:44:11;;;;;;;6.72;3.25;;;;;;;;;;6182142;23;20020;-76
2022/05/31 05:46:39;;;;;;;7.97;3.65;;;;;;;;;;6157251;23;20032;-76
2022/05/31 05:49:07;;;;;;;8.27;3.72;;;;;;;;;;6182546;23;20088;-76
2022/05/31 05:51:41;;;;;;;5.25;2.75;;;;;;;;;;6148055;23;20414;-78
2022/05/31 05:54:33;;;;;;;6.13;2.50;;;;;;;;;;6181396;23;20052;-76
2022/05/31 05:57:19;;;;;;;4.55;1.92;;;;;;;;;;6181535;23;20189;-77
2022/05/31 06:00:06;;;;;;;3.92;2.10;;;;;;;;;;6172324;23;20032;-77
2022/05/31 06:03:02;;;;;;;3.22;1.98;;;;;;;;;;6182786;23;20040;-77
2022/05/31 06:05:59;;;;;;;13.27;2.10;;;;;;;;;;6163857;23;20112;-77
2022/05/31 06:08:35;;;;;;;7.45;2.60;;;;;;;;;;6155939;23;20555;-77
2022/05/31 06:11:17;;;;;;;3.03;1.60;;;;;;;;;;6189146;22;20052;-76
2022/05/31 06:13:50;;;;;;;5.47;1.85;;;;;;;;;;6336395;22;20022;-77
2022/05/31 06:16:22;;;;;;;4.38;1.80;;;;;;;;;;6336580;22;20054;-77
2022/05/31 06:19:27;;;;;;;2.97;1.50;;;;;;;;;;6339085;22;20761;-77
2022/05/31 06:22:20;;;;;;;3.63;1.48;;;;;;;;;;6339065;22;20026;-77
2022/05/31 06:25:16;;;;;;;3.70;1.58;;;;;;;;;;6336776;22;20402;-77
2022/05/31 06:27:51;;;;;;;3.50;1.50;;;;;;;;;;6339220;22;20618;-77
2022/05/31 06:30:19;;;;;;;3.60;1.15;;;;;;;;;;6336198;22;20022;-77
2022/05/31 06:32:53;;;;;;;2.85;1.10;;;;;;;;;;6320111;22;20023;-77
2022/05/31 06:35:21;;;;;;;2.70;1.50;;;;;;;;;;6338118;22;20022;-77
2022/05/31 06:38:00;;;;;;;3.15;1.20;;;;;;;;;;6336782;22;20018;-77
2022/05/31 06:40:29;;;;;;;2.90;0.85;;;;;;;;;;6298076;22;20022;-77
2022/05/31 06:43:13;;;;;;;2.88;0.80;;;;;;;;;;6361454;22;20767;-77
2022/05/31 06:46:07;;;;;;;1.70;1.10;;;;;;;;;;6338475;22;20614;-77
2022/05/31 06:48:53;;;;;;;2.85;1.10;;;;;;;;;;6336893;22;20018;-76
2022/05/31 06:58:13;;;;;;;2.28;1.20;;;;;;;;;;6336912;22;20793;-77
2022/05/31 07:00:53;;;;;;;3.58;1.17;;;;;;;;;;6335351;22;20030;-77
2022/05/31 07:03:25;;;;;;;3.88;1.52;;;;;;;;;;6335780;22;20015;-77
2022/05/31 07:05:58;;;;;;;1.75;1.00;;;;;;;;;;6360743;22;20029;-77
2022/05/31 07:08:25;;;;;;;3.42;1.13;;;;;;;;;;6335325;22;20022;-77
2022/05/31 07:10:58;;;;;;;1.92;0.90;;;;;;;;;;6335740;22;20022;-77
2022/05/31 07:13:45;;;;;;;1.92;0.85;;;;;;;;;;6324893;22;20030;-77
2022/05/31 07:16:47;;;;;;;2.97;0.80;;;;;;;;;;6336265;22;20011;-77
2022/05/31 07:19:31;;;;;;;2.40;0.90;;;;;;;;;;6335079;22;20019;-76
2022/05/31 07:22:25;;;;;;;2.47;0.98;;;;;;;;;;6335264;22;20018;-77
2022/05/31 07:25:13;;;;;;;2.72;0.80;;;;;;;;;;6335005;22;20041;-77
2022/05/31 07:27:57;;;;;;;2.90;1.30;;;;;;;;;;6336764;22;20015;-77
2022/05/31 07:30:25;;;;;;;4.85;1.10;;;;;;;;;;6334404;22;20083;-77
2022/05/31 07:32:53;;;;;;;2.78;0.88;;;;;;;;;;6325866;22;20030;-79
2022/05/31 07:36:12;;;;;;;5.88;1.10;;;;;;;;;;6335237;22;20015;-77
2022/05/31 07:39:01;;;;;;;3.38;1.20;;;;;;;;;;6334153;22;20079;-76
2022/05/31 07:41:32;;;;;;;3.28;1.00;;;;;;;;;;6334748;22;20045;-77
2022/05/31 07:44:30;;;;;;;4.50;1.08;;;;;;;;;;6336359;22;20371;-76
2022/05/31 07:47:00;;;;;;;3.17;1.20;;;;;;;;;;6335729;22;20355;-76
2022/05/31 07:49:28;;;;;;;2.78;1.00;;;;;;;;;;6335621;22;20025;-76
2022/05/31 07:52:19;;;;;;;1.50;0.80;;;;;;;;;;6323949;22;20476;-77
2022/05/31 07:55:11;;;;;;;3.70;0.93;;;;;;;;;;6334356;22;20140;-77
2022/05/31 08:01:37;;;;;;;2.03;0.88;;;;;;;;;;6335462;22;20010;-76
2022/05/31 08:04:21;;;;;;;4.15;0.98;;;;;;;;;;6335506;22;20032;-77
2022/05/31 08:06:51;;;;;;;2.67;1.10;;;;;;;;;;6334200;22;20359;-76
2022/05/31 08:09:24;;;;;;;3.33;0.90;;;;;;;;;;6332927;22;20018;-77
2022/05/31 08:11:51;;;;;;;4.20;1.67;;;;;;;;;;6325214;22;20036;-77
2022/05/31 08:14:43;;;;;;;1.90;0.80;;;;;;;;;;6336707;22;20013;-77
2022/05/31 08:17:11;;;;;;;3.10;0.98;;;;;;;;;;6334385;22;20041;-78
2022/05/31 08:23:08;;;;;;;3.08;1.13;;;;;;;;;;6335755;22;20060;-77
2022/05/31 08:25:38;;;;;;;3.05;1.00;;;;;;;;;;6333649;22;20114;-77
2022/05/31 08:28:07;;;;;;;4.30;1.20;;;;;;;;;;6334892;22;20026;-77
2022/05/31 08:30:35;;;;;;;2.28;0.90;;;;;;;;;;6334459;22;20018;-78
2022/05/31 08:33:03;;;;;;;3.70;1.17;;;;;;;;;;6335416;22;20476;-77
2022/05/31 08:35:31;;;;;;;3.83;1.02;;;;;;;;;;6336811;22;20039;-77
2022/05/31 08:38:19;;;;;;;4.85;0.90;;;;;;;;;;6337043;22;20015;-78
2022/05/31 08:41:22;;;;;;;1.50;0.80;;;;;;;;;;6333592;22;20019;-78
2022/05/31 08:43:57;;;;;;;1.88;0.75;;;;;;;;;;6337932;22;20364;-78
2022/05/31 08:46:59;;;;;;;1.95;0.88;;;;;;;;;;6338656;22;20038;-77
2022/05/31 08:53:05;;;;;;;3.63;0.98;;;;;;;;;;6328923;22;20025;-78
2022/05/31 08:58:37;;;;;;;1.92;1.00;;;;;;;;;;6337270;22;20178;-77
2022/05/31 09:01:36;;;;;;;3.28;1.17;;;;;;;;;;6338414;22;20028;-77
2022/05/31 09:04:15;;;;;;;2.90;1.20;;;;;;;;;;6326444;22;20033;-78
2022/05/31 09:06:51;;;;;;;3.33;0.95;;;;;;;;;;6338302;22;20010;-78
2022/05/31 09:09:29;;;;;;;2.38;1.13;;;;;;;;;;6300845;22;20023;-77
2022/05/31 09:12:09;;;;;;;3.35;1.00;;;;;;;;;;6327699;22;20030;-77
2022/05/31 09:15:01;;;;;;;2.60;1.00;;;;;;;;;;6338765;22;20014;-77
2022/05/31 09:17:55;;;;;;;3.60;0.98;;;;;;;;;;6325968;22;20105;-77
2022/05/31 09:20:42;;;;;;;2.67;1.08;;;;;;;;;;6313098;22;20426;-77
2022/05/31 09:23:12;;;;;;;1.33;0.77;;;;;;;;;;6338571;22;20347;-77
2022/05/31 09:25:41;;;;;;;3.30;1.00;;;;;;;;;;6337782;22;20022;-77
2022/05/31 09:28:24;;;;;;;3.28;1.10;;;;;;;;;;6333515;22;20051;-77
2022/05/31 09:30:55;;;;;;;2.33;1.20;;;;;;;;;;6329826;22;20075;-77
2022/05/31 09:33:37;;;;;;;2.70;1.13;;;;;;;;;;6319130;22;20051;-77
2022/05/31 09:36:09;;;;;;;2.28;1.02;;;;;;;;;;6332456;22;20097;-77
2022/05/31 09:38:55;;;;;;;3.45;1.35;;;;;;;;;;6334457;22;20053;-77
2022/05/31 09:41:47;;;;;;;3.72;1.15;;;;;;;;;;6330607;22;20022;-78
2022/05/31 09:44:42;;;;;;;3.53;1.17;;;;;;;;;;6334851;22;20015;-78
2022/05/31 09:47:19;;;;;;;2.97;1.35;;;;;;;;;;6330584;22;20047;-78
2022/05/31 09:49:54;;;;;;;3.63;1.08;;;;;;;;;;6332195;22;20793;-78
2022/05/31 09:52:37;;;;;;;4.28;1.50;;;;;;;;;;6333071;22;20102;-78
2022/05/31 09:58:32;;;;;;;2.40;0.90;;;;;;;;;;6330403;22;20030;-78
2022/05/31 10:01:30;;;;;;;2.10;1.23;;;;;;;;;;6329089;22;20459;-78
2022/05/31 10:04:21;;;;;;;1.95;0.70;;;;;;;;;;6331540;22;20035;-78
2022/05/31 10:06:59;;;;;;;2.08;0.73;;;;;;;;;;6331255;22;20064;-78
2022/05/31 10:09:39;;;;;;;3.05;1.10;;;;;;;;;;6330893;22;20018;-78
2022/05/31 10:12:14;;;;;;;3.05;1.10;;;;;;;;;;6329723;22;20023;-78
2022/05/31 10:14:48;;;;;;;2.03;0.80;;;;;;;;;;6325675;22;20354;-78
2022/05/31 10:17:38;;;;;;;2.95;1.10;;;;;;;;;;6336853;22;20085;-78
2022/05/31 10:20:32;;;;;;;3.38;1.30;;;;;;;;;;6334843;22;20018;-78
2022/05/31 10:23:15;;;;;;;3.53;1.23;;;;;;;;;;6338776;22;20019;-78
2022/05/31 10:26:02;;;;;;;3.55;1.10;;;;;;;;;;6336963;22;20018;-78
2022/05/31 10:29:03;;;;;;;2.58;1.10;;;;;;;;;;6319729;22;20023;-78
2022/05/31 10:31:51;;;;;;;;;;;;;;;;;;6330776;22;20022;-79
2022/05/31 10:34:34;;;;;;;2.47;1.20;;;;;;;;;;6336737;22;19929;-79
2022/05/31 10:37:03;;;;;;;2.53;1.15;;;;;;;;;;6333267;22;20089;-79
2022/05/31 10:39:39;;;;;;;5.13;1.30;;;;;;;;;;6328751;22;20019;-78
2022/05/31 10:42:40;;;;;;;1.85;1.10;;;;;;;;;;6330632;22;20029;-82
2022/05/31 10:45:11;;;;;;;2.60;1.30;;;;;;;;;;6334422;22;20117;-80
2022/05/31 10:47:39;;;;;;;3.75;1.40;;;;;;;;;;6335475;22;20026;-84
2022/05/31 10:50:08;;;;;;;3.30;1.30;;;;;;;;;;6330619;22;20038;-80
2022/05/31 10:52:46;;;;;;;4.43;1.05;;;;;;;;;;6332052;22;20048;-82
2022/05/31 10:55:37;;;;;;;4.75;1.17;;;;;;;;;;6337268;22;20015;-83
2022/05/31 10:58:30;;;;;;;2.72;0.80;;;;;;;;;;6335731;22;20018;-81
2022/05/31 11:01:23;;;;;;;3.03;1.00;;;;;;;;;;6342095;22;20083;-82
2022/05/31 11:04:20;;;;;;;2.63;1.10;;;;;;;;;;6338090;22;20038;-82
2022/05/31 11:06:47;;;;;;;;;;;;;;;;;;6325428;22;20378;-78
2022/05/31 11:12:34;;;;;;;2.08;0.95;;;;;;;;;;6322188;22;20076;-78
2022/05/31 11:15:32;;;;;;;2.58;0.82;;;;;;;;;;6321097;22;20026;-80
2022/05/31 11:18:30;;;;;;;2.00;1.15;;;;;;;;;;6331332;22;20018;-82
2022/05/31 11:21:17;;;;;;;1.60;0.90;;;;;;;;;;6333409;22;20053;-79
2022/05/31 11:23:55;;;;;;;2.15;0.93;;;;;;;;;;6329170;22;20457;-79
2022/05/31 11:26:40;;;;;;;5.07;1.10;;;;;;;;;;6328529;22;20014;-79
2022/05/31 11:29:37;;;;;;;2.25;1.00;;;;;;;;;;6331929;22;20026;-81
2022/05/31 11:32:29;;;;;;;1.50;0.77;;;;;;;;;;6324909;22;20553;-79
2022/05/31 11:35:06;;;;;;;2.38;0.93;;;;;;;;;;6332759;22;20121;-83
2022/05/31 11:37:52;;;;;;;3.65;0.80;;;;;;;;;;6321003;22;20480;-79
2022/05/31 11:40:32;;;;;;;3.90;1.00;;;;;;;;;;6334469;22;20394;-79
2022/05/31 11:43:17;;;;;;;3.17;0.98;;;;;;;;;;6335264;22;20029;-79
2022/05/31 11:46:03;;;;;;;3.17;1.08;;;;;;;;;;6330650;22;20030;-79
2022/05/31 11:49:01;;;;;;;2.72;1.13;;;;;;;;;;6330951;22;20794;-79
2022/05/31 11:52:09;;;;;;;3.10;1.10;;;;;;;;;;6330275;22;20017;-78
2022/05/31 11:58:31;;;;;;;2.72;0.93;;;;;;;;;;6330244;22;20011;-78
2022/05/31 12:01:20;;;;;;;1.05;0.60;;;;;;;;;;6326853;22;20325;-78
2022/05/31 12:04:07;;;;;;;2.47;0.95;;;;;;;;;;6323433;22;20038;-79
2022/05/31 12:06:46;;;;;;;5.03;1.05;;;;;;;;;;6337006;22;20016;-78
2022/05/31 12:09:30;;;;;;;2.95;0.82;;;;;;;;;;6337240;22;20029;-79
2022/05/31 12:12:01;;;;;;;1.90;0.80;;;;;;;;;;6338174;22;20025;-79
2022/05/31 12:14:32;;;;;;;2.50;1.02;;;;;;;;;;6329435;22;20023;-79
2022/05/31 12:17:34;;;;;;;2.42;0.98;;;;;;;;;;6328188;22;20007;-79
2022/05/31 12:20:19;;;;;;;2.80;0.85;;;;;;;;;;6331897;22;20056;-79
2022/05/31 12:23:17;;;;;;;2.53;1.10;;;;;;;;;;6331708;22;20072;-79
2022/05/31 12:25:54;;;;;;;2.33;0.77;;;;;;;;;;6329546;22;20015;-78
2022/05/31 12:28:54;;;;;;;1.52;0.85;;;;;;;;;;6330632;22;20021;-79
2022/05/31 12:31:28;;;;;;;3.17;1.00;;;;;;;;;;6330995;22;20075;-77
2022/05/31 12:34:21;;;;;;;2.47;0.85;;;;;;;;;;6329570;22;20015;-78
2022/05/31 12:36:55;;;;;;;2.08;0.80;;;;;;;;;;6330295;22;20011;-78
2022/05/31 12:39:50;;;;;;;3.75;1.00;;;;;;;;;;6331436;22;20103;-78
2022/05/31 12:42:41;;;;;;;2.50;1.00;;;;;;;;;;6328209;22;20058;-78
2022/05/31 12:45:37;;;;;;;4.45;1.00;;;;;;;;;;6328914;22;20054;-78
2022/05/31 12:48:14;;;;;;;2.15;0.82;;;;;;;;;;6327988;22;20029;-78
2022/05/31 12:51:20;;;;;;;0.95;0.65;;;;;;;;;;6331305;22;20461;-79
2022/05/31 12:54:18;;;;;;;1.92;0.90;;;;;;;;;;6332267;22;20022;-79
2022/05/31 12:56:55;;;;;;;1.50;0.77;;;;;;;;;;6326965;22;20022;-81
2022/05/31 12:59:52;;;;;;;4.55;1.67;;;;;;;;;;6331475;22;20393;-79
2022/05/31 13:03:10;;;;;;;;;;;;;;;;;;6337627;22;20025;-79
2022/05/31 13:06:10;;;;;;;20.50;15.02;;;;;;;;;;6337118;22;20123;-78
2022/05/31 13:09:22;;;;;;;3.50;1.67;;;;;;;;;;6335283;22;20018;-76
2022/05/31 13:21:29;;;;;;;5.25;1.75;;;;;;;;;;6196896;23;20029;-77
2022/05/31 13:24:18;;;;;;;2.55;1.10;;;;;;;;;;6202026;23;20457;-81
2022/05/31 13:26:46;;;;;;;3.13;1.20;;;;;;;;;;6184116;23;20035;-76
2022/05/31 13:29:20;;;;;;;1.92;0.90;;;;;;;;;;6211522;23;20400;-76
2022/05/31 13:32:00;;;;;;;3.70;0.90;;;;;;;;;;6210766;23;20028;-76
2022/05/31 13:34:40;;;;;;;3.47;1.00;;;;;;;;;;6211784;23;20114;-76
2022/05/31 13:37:18;;;;;;;1.77;0.77;;;;;;;;;;6212110;23;20035;-76
2022/05/31 13:39:47;;;;;;;2.78;0.80;;;;;;;;;;6209952;23;20033;-76
2022/05/31 13:42:21;;;;;;;2.85;0.80;;;;;;;;;;6211220;23;20158;-76
2022/05/31 13:44:53;;;;;;;2.45;0.80;;;;;;;;;;6188049;23;20055;-76
2022/05/31 13:47:28;;;;;;;1.58;0.80;;;;;;;;;;6239062;23;20599;-76
2022/05/31 13:50:05;;;;;;;2.33;1.05;;;;;;;;;;6242056;23;20028;-76
2022/05/31 13:52:33;;;;;;;3.33;1.20;;;;;;;;;;6318229;22;20031;-76
2022/05/31 13:55:16;;;;;;;2.22;0.88;;;;;;;;;;6336182;22;20101;-76
2022/05/31 13:57:55;;;;;;;2.10;1.20;;;;;;;;;;6336176;22;20018;-76
2022/05/31 14:00:40;;;;;;;4.17;1.17;;;;;;;;;;6335685;22;20023;-76
2022/05/31 14:03:20;;;;;;;2.10;1.00;;;;;;;;;;6330589;22;20046;-76
2022/05/31 14:05:52;;;;;;;3.25;1.02;;;;;;;;;;6326426;22;20378;-76
2022/05/31 14:08:48;;;;;;;;;;;;;;;;;;6337431;22;20006;-76
2022/05/31 14:11:46;;;;;;;2.60;1.10;;;;;;;;;;6337000;22;19918;-76
2022/05/31 14:14:18;;;;;;;3.13;1.40;;;;;;;;;;6326593;22;20061;-76
2022/05/31 14:17:14;;;;;;;2.88;1.10;;;;;;;;;;6338564;22;20046;-75
2022/05/31 14:19:46;;;;;;;2.72;1.35;;;;;;;;;;6338685;22;20518;-77
2022/05/31 14:22:20;;;;;;;2.97;1.10;;;;;;;;;;6339307;22;20076;-77
2022/05/31 14:27:49;;;;;;;3.55;1.00;;;;;;;;;;6337990;22;20382;-77
2022/05/31 14:30:34;;;;;;;2.63;1.08;;;;;;;;;;6338268;22;20477;-77
2022/05/31 14:33:06;;;;;;;5.25;1.70;;;;;;;;;;6338108;22;20038;-78
2022/05/31 14:35:51;;;;;;;5.60;1.52;;;;;;;;;;6338367;22;20022;-77
2022/05/31 14:38:28;;;;;;;2.72;1.30;;;;;;;;;;6338299;22;20022;-77
2022/05/31 14:40:59;;;;;;;2.85;1.40;;;;;;;;;;6336638;22;20037;-77
2022/05/31 14:43:55;;;;;;;3.80;1.15;;;;;;;;;;6337097;22;20054;-77
2022/05/31 14:46:26;;;;;;;;;;;;;;;;;;6340265;22;20023;-77
2022/05/31 14:49:04;;;;;;;4.57;1.30;;;;;;;;;;6337153;22;19926;-77
2022/05/31 14:51:37;;;;;;;3.05;1.20;;;;;;;;;;6338459;22;20053;-77
2022/05/31 14:54:30;;;;;;;1.85;1.05;;;;;;;;;;6335361;22;20030;-77
2022/05/31 14:57:04;;;;;;;4.05;1.30;;;;;;;;;;6336904;22;20346;-78
2022/05/31 14:59:31;;;;;;;2.83;1.42;;;;;;;;;;6336783;22;20284;-77
2022/05/31 15:01:59;;;;;;;5.93;1.70;;;;;;;;;;6324825;22;20102;-77
2022/05/31 15:04:45;;;;;;;4.30;1.17;;;;;;;;;;6339074;22;20018;-77
2022/05/31 15:07:17;;;;;;;3.55;1.23;;;;;;;;;;6338010;22;20014;-78
2022/05/31 15:10:11;;;;;;;;;;;;;;;;;;6337913;22;20029;-78
2022/05/31 15:21:24;;;;;;;5.28;1.40;;;;;;;;;;6338769;22;20019;-77
2022/05/31 15:23:53;;;;;;;3.75;1.10;;;;;;;;;;6326943;22;20042;-77
2022/05/31 15:26:31;;;;;;;2.28;0.95;;;;;;;;;;6337634;22;20060;-77
2022/05/31 15:29:03;;;;;;;2.15;1.05;;;;;;;;;;6336194;22;20050;-77
2022/05/31 15:31:40;;;;;;;3.58;1.05;;;;;;;;;;6336432;22;20665;-81
2022/05/31 15:34:35;;;;;;;4.13;1.42;;;;;;;;;;6336121;22;20034;-79
2022/05/31 15:37:06;;;;;;;2.47;1.45;;;;;;;;;;6335677;22;20468;-79
2022/05/31 15:39:40;;;;;;;2.28;1.10;;;;;;;;;;6337677;22;20015;-78
2022/05/31 15:42:11;;;;;;;3.65;1.30;;;;;;;;;;6338486;22;20025;-77
2022/05/31 15:45:04;;;;;;;;;;;;;;;;;;6306202;22;20030;-77
2022/05/31 15:47:55;;;;;;;2.55;1.17;;;;;;;;;;6328767;22;19910;-80
2022/05/31 15:50:27;;;;;;;3.47;1.65;;;;;;;;;;6337225;22;20310;-84
2022/05/31 15:52:55;;;;;;;3.85;1.20;;;;;;;;;;6281008;22;20045;-89
2022/05/31 15:55:23;;;;;;;2.40;1.23;;;;;;;;;;6322081;22;20022;-90
2022/05/31 15:57:52;;;;;;;2.67;1.45;;;;;;;;;;6321686;22;20014;-89
2022/05/31 16:00:21;;;;;;;3.33;1.40;;;;;;;;;;6348836;22;20015;-89
2022/05/31 16:02:49;;;;;;;3.00;1.55;;;;;;;;;;6285670;22;20102;-88
2022/05/31 16:05:18;;;;;;;3.55;1.63;;;;;;;;;;6321246;22;20015;-88
2022/05/31 16:07:48;;;;;;;2.10;1.10;;;;;;;;;;6347397;22;20015;-89
2022/05/31 16:10:22;;;;;;;4.20;1.35;;;;;;;;;;6323275;22;20046;-89
2022/05/31 16:12:52;;;;;;;2.53;1.05;;;;;;;;;;6286101;22;20027;-89
2022/05/31 16:15:19;;;;;;;2.70;0.90;;;;;;;;;;6322332;22;20015;-89
2022/05/31 16:18:11;;;;;;;2.38;1.20;;;;;;;;;;6322474;22;20014;-89
2022/05/31 16:20:39;;;;;;;3.40;1.20;;;;;;;;;;6350607;22;20025;-89
2022/05/31 16:23:08;;;;;;;1.95;1.10;;;;;;;;;;6311622;22;20383;-89
2022/05/31 16:25:37;;;;;;;2.20;1.10;;;;;;;;;;6285616;22;20098;-89
2022/05/31 16:28:29;;;;;;;2.22;1.10;;;;;;;;;;6327744;22;20038;-89
2022/05/31 16:31:21;;;;;;;1.48;0.90;;;;;;;;;;6291282;22;20021;-89
2022/05/31 16:33:53;;;;;;;2.05;0.98;;;;;;;;;;6321787;22;20014;-89
2022/05/31 16:36:27;;;;;;;2.83;1.15;;;;;;;;;;6323048;22;20444;-89
2022/05/31 16:41:47;;;;;;;5.13;1.20;;;;;;;;;;6349202;22;20068;-92
2022/05/31 16:44:15;;;;;;;2.45;1.13;;;;;;;;;;6349228;22;20019;-91
2022/05/31 16:46:49;;;;;;;2.80;1.00;;;;;;;;;;6297759;22;20064;-91
2022/05/31 16:49:17;;;;;;;1.60;0.95;;;;;;;;;;6349192;22;20041;-89
2022/05/31 16:51:48;;;;;;;3.00;1.17;;;;;;;;;;6321682;22;20018;-88
2022/05/31 16:54:46;;;;;;;;;;;;;;;;;;6349777;22;20464;-89
2022/05/31 16:57:15;;;;;;;2.20;1.00;;;;;;;;;;6348732;22;19925;-89
2022/05/31 16:59:46;;;;;;;1.85;1.00;;;;;;;;;;6268823;22;20015;-85
2022/05/31 17:02:21;;;;;;;1.60;0.80;;;;;;;;;;6268384;22;20446;-84
2022/05/31 17:04:49;;;;;;;2.45;0.95;;;;;;;;;;6276302;22;20019;-84
2022/05/31 17:15:53;;;;;;;3.67;1.00;;;;;;;;;;6239029;22;20915;-83
2022/05/31 17:18:45;;;;;;;3.20;1.00;;;;;;;;;;6239126;22;20085;-84
2022/05/31 17:21:21;;;;;;;3.17;1.35;;;;;;;;;;6275454;22;20735;-84